createdAt,value
2023-03-17T00:00:43.679Z,5.05
2023-03-17T00:05:36.174Z,5.10
2023-03-17T00:10:28.542Z,6.32
2023-03-17T00:15:22.212Z,6.82
2023-03-17T00:20:21.316Z,8.82
2023-03-17T00:25:29.069Z,8.43
2023-03-17T00:30:22.758Z,7.53
2023-03-17T00:35:17.736Z,8.07
2023-03-17T00:40:20.452Z,8.15
2023-03-17T00:45:12.764Z,7.00
2023-03-17T00:50:05.572Z,7.82
2023-03-17T00:54:58.814Z,7.95
2023-03-17T00:59:51.453Z,7.13
2023-03-17T01:04:52.895Z,7.05
2023-03-17T01:09:51.371Z,6.78
2023-03-17T01:14:43.747Z,7.53
2023-03-17T01:19:35.378Z,6.93
2023-03-17T01:24:28.737Z,8.00
2023-03-17T01:29:20.337Z,8.75
2023-03-17T01:34:13.188Z,8.52
2023-03-17T01:39:05.373Z,8.43
2023-03-17T01:43:57.716Z,7.65
2023-03-17T01:49:28.334Z,8.48
2023-03-17T01:54:20.314Z,7.82
2023-03-17T01:59:17.734Z,8.15
2023-03-17T02:04:12.177Z,7.73
2023-03-17T02:09:04.679Z,7.22
2023-03-17T02:13:56.823Z,8.07
2023-03-17T02:18:49.237Z,7.20
2023-03-17T02:23:41.597Z,7.75
2023-03-17T02:28:34.906Z,8.80
2023-03-17T02:33:28.172Z,8.70
2023-03-17T02:38:19.808Z,9.18
2023-03-17T02:43:12.770Z,9.02
2023-03-17T02:48:05.713Z,8.23
2023-03-17T02:52:58.608Z,8.93
2023-03-17T02:57:50.278Z,8.52
2023-03-17T03:02:42.266Z,8.35
2023-03-17T03:07:33.914Z,8.00
2023-03-17T03:12:25.684Z,8.98
2023-03-17T03:17:18.521Z,9.02
2023-03-17T03:22:10.296Z,9.18
2023-03-17T03:27:02.189Z,9.27
2023-03-17T03:31:53.802Z,8.30
2023-03-17T03:36:45.622Z,8.25
2023-03-17T03:41:37.524Z,8.45
2023-03-17T03:46:29.207Z,7.65
2023-03-17T03:51:21.179Z,8.10
2023-03-17T03:56:12.908Z,8.45
2023-03-17T04:01:06.461Z,8.60
2023-03-17T04:05:58.331Z,7.78
2023-03-17T04:10:49.975Z,8.98
2023-03-17T04:15:41.711Z,9.38
2023-03-17T04:20:33.504Z,8.88
2023-03-17T04:25:25.804Z,7.97
2023-03-17T04:30:17.862Z,8.60
2023-03-17T04:35:15.549Z,7.75
2023-03-17T04:40:10.124Z,7.07
2023-03-17T04:45:02.040Z,8.18
2023-03-17T04:49:54.168Z,7.57
2023-03-17T04:54:45.870Z,7.20
2023-03-17T04:59:37.610Z,6.80
2023-03-17T05:04:32.030Z,7.07
2023-03-17T05:09:25.822Z,7.40
2023-03-17T05:14:17.875Z,8.68
2023-03-17T05:19:09.472Z,6.47
2023-03-17T05:24:01.282Z,7.30
2023-03-17T05:28:53.627Z,6.07
2023-03-17T05:33:46.566Z,5.85
2023-03-17T05:38:38.195Z,5.47
2023-03-17T05:43:30.548Z,5.32
2023-03-17T05:48:22.910Z,4.63
2023-03-17T05:53:15.065Z,5.00
2023-03-17T05:58:06.700Z,5.53
2023-03-17T06:02:58.997Z,4.78
2023-03-17T06:07:55.596Z,5.18
2023-03-17T06:12:47.840Z,4.45
2023-03-17T06:17:39.499Z,4.70
2023-03-17T06:22:32.863Z,5.20
2023-03-17T06:27:24.548Z,4.45
2023-03-17T06:32:20.908Z,4.80
2023-03-17T06:37:12.901Z,5.82
2023-03-17T06:42:06.314Z,4.43
2023-03-17T06:46:58.293Z,4.97
2023-03-17T06:51:49.933Z,5.05
2023-03-17T06:56:41.754Z,7.22
2023-03-17T07:01:33.827Z,5.57
2023-03-17T07:06:25.713Z,5.68
2023-03-17T07:11:17.605Z,4.95
2023-03-17T07:16:17.010Z,5.18
2023-03-17T07:21:10.216Z,4.97
2023-03-17T07:26:02.581Z,5.63
2023-03-17T07:30:54.904Z,5.68
2023-03-17T07:35:47.452Z,4.97
2023-03-17T07:40:39.242Z,5.10
2023-03-17T07:45:31.632Z,4.25
2023-03-17T07:50:23.582Z,3.15
2023-03-17T07:55:16.050Z,3.30
2023-03-17T08:00:13.697Z,3.40
2023-03-17T08:05:07.739Z,3.60
2023-03-17T08:09:59.910Z,3.88
2023-03-17T08:14:52.237Z,2.88
2023-03-17T08:19:43.999Z,2.60
2023-03-17T08:24:37.325Z,3.55
2023-03-17T08:29:30.093Z,2.80
2023-03-17T08:34:21.713Z,2.20
2023-03-17T08:39:13.316Z,2.33
2023-03-17T08:44:05.489Z,1.95
2023-03-17T08:48:58.498Z,1.73
2023-03-17T08:53:51.257Z,1.85
2023-03-17T08:58:43.728Z,1.98
2023-03-17T09:03:36.138Z,1.67
2023-03-17T09:08:28.169Z,1.58
2023-03-17T09:13:21.030Z,1.55
2023-03-17T09:18:13.018Z,1.45
2023-03-17T09:23:10.022Z,1.25
2023-03-17T09:28:02.067Z,2.50
2023-03-17T09:32:54.031Z,2.10
2023-03-17T09:37:46.341Z,2.35
2023-03-17T09:42:47.761Z,2.28
2023-03-17T09:47:41.572Z,1.27
2023-03-17T09:52:36.352Z,1.85
2023-03-17T09:57:40.118Z,1.00
2023-03-17T10:02:34.174Z,0.98
2023-03-17T10:07:45.155Z,0.75
2023-03-17T10:12:53.566Z,0.75
2023-03-17T10:17:46.232Z,1.02
2023-03-17T10:22:41.305Z,0.70
2023-03-17T10:27:37.283Z,0.80
2023-03-17T10:32:31.246Z,0.70
2023-03-17T10:37:24.384Z,0.60
2023-03-17T10:42:29.207Z,0.60
2023-03-17T10:47:25.905Z,0.50
2023-03-17T10:52:27.577Z,0.60
2023-03-17T10:57:19.807Z,1.10
2023-03-17T11:02:35.753Z,0.80
2023-03-17T11:07:39.608Z,0.80
2023-03-17T11:12:39.407Z,0.68
2023-03-17T11:17:37.083Z,0.90
2023-03-17T11:22:38.323Z,0.82
2023-03-17T11:27:36.220Z,0.50
2023-03-17T11:37:34.810Z,0.70
2023-03-17T11:42:50.735Z,0.60
2023-03-17T11:48:01.362Z,0.70
2023-03-17T11:53:05.939Z,0.43
2023-03-17T11:58:10.672Z,0.55
2023-03-17T12:03:40.284Z,0.98
2023-03-17T12:08:42.380Z,0.60
2023-03-17T12:13:46.125Z,0.80
2023-03-17T12:18:39.890Z,0.70
2023-03-17T12:23:48.318Z,0.60
2023-03-17T12:28:58.163Z,0.60
2023-03-17T12:33:55.414Z,0.80
2023-03-17T12:38:57.209Z,0.60
2023-03-17T12:44:11.351Z,0.68
2023-03-17T12:49:17.751Z,0.57
2023-03-17T12:54:24.698Z,0.90
2023-03-17T12:59:20.963Z,0.63
2023-03-17T13:04:22.130Z,0.60
2023-03-17T13:09:50.875Z,0.60
2023-03-17T13:20:03.657Z,0.82
2023-03-17T13:25:13.774Z,0.55
2023-03-17T13:30:25.325Z,0.40
2023-03-17T13:35:20.231Z,0.40
2023-03-17T13:40:34.100Z,0.50
2023-03-17T13:45:56.207Z,0.60
2023-03-17T13:50:48.112Z,0.52
2023-03-17T13:56:02.940Z,0.50
2023-03-17T14:01:02.738Z,0.50
2023-03-17T14:05:55.486Z,0.40
2023-03-17T14:10:54.978Z,0.80
2023-03-17T14:16:20.202Z,1.20
2023-03-17T14:21:23.831Z,0.60
2023-03-17T14:26:15.945Z,0.60
2023-03-17T14:31:08.217Z,0.40
2023-03-17T14:36:02.485Z,0.40
2023-03-17T14:41:06.162Z,0.40
2023-03-17T14:46:06.062Z,0.50
2023-03-17T14:51:06.879Z,0.30
2023-03-17T14:55:59.870Z,0.30
2023-03-17T15:01:17.329Z,0.95
2023-03-17T15:06:28.417Z,0.50
2023-03-17T15:11:28.632Z,0.40
2023-03-17T15:16:25.582Z,0.63
2023-03-17T15:21:43.884Z,0.37
2023-03-17T15:26:37.348Z,0.38
2023-03-17T15:31:30.253Z,0.40
2023-03-17T15:36:32.479Z,0.30
2023-03-17T15:41:24.903Z,0.20
2023-03-17T15:46:27.784Z,0.30
2023-03-17T15:51:19.659Z,0.20
2023-03-17T15:56:20.495Z,0.20
2023-03-17T16:01:13.062Z,0.30
2023-03-17T16:06:12.009Z,0.30
2023-03-17T16:11:03.639Z,0.40
2023-03-17T16:15:57.839Z,0.20
2023-03-17T16:20:52.366Z,0.40
2023-03-17T16:25:44.768Z,0.40
2023-03-17T16:30:36.977Z,0.40
2023-03-17T16:35:28.797Z,0.68
2023-03-17T16:40:24.978Z,0.30
2023-03-17T16:45:35.314Z,0.50
2023-03-17T16:50:31.048Z,0.73
2023-03-17T16:55:25.403Z,2.03
2023-03-17T17:00:30.469Z,0.60
2023-03-17T17:05:25.863Z,0.55
2023-03-17T17:10:19.421Z,0.80
2023-03-17T17:15:13.017Z,0.60
2023-03-17T17:20:14.206Z,0.63
2023-03-17T17:25:09.901Z,0.50
2023-03-17T17:30:01.578Z,0.50
2023-03-17T17:34:53.179Z,0.40
2023-03-17T17:39:44.897Z,0.40
2023-03-17T17:44:37.162Z,0.30
2023-03-17T17:49:28.843Z,0.30
2023-03-17T17:54:20.831Z,0.40
2023-03-17T17:59:14.494Z,0.30
2023-03-17T18:04:06.423Z,1.90
2023-03-17T18:08:59.285Z,0.50
2023-03-17T18:13:51.324Z,0.50
2023-03-17T18:18:45.618Z,0.57
2023-03-17T18:23:37.857Z,0.60
2023-03-17T18:28:29.825Z,0.68
2023-03-17T18:33:21.606Z,0.40
2023-03-17T18:38:13.449Z,0.75
2023-03-17T18:43:05.134Z,0.50
2023-03-17T18:47:56.723Z,0.70
2023-03-17T18:52:49.633Z,0.98
2023-03-17T18:57:44.439Z,4.10
2023-03-17T19:02:37.692Z,3.00
2023-03-17T19:07:29.465Z,1.02
2023-03-17T19:12:21.153Z,4.65
2023-03-17T19:17:13.184Z,3.70
2023-03-17T19:22:06.422Z,5.50
2023-03-17T19:26:58.145Z,6.25
2023-03-17T19:31:49.764Z,2.17
2023-03-17T19:36:43.074Z,2.08
2023-03-17T19:41:35.222Z,0.88
2023-03-17T19:46:28.486Z,1.90
2023-03-17T19:51:20.272Z,1.35
2023-03-17T19:56:11.910Z,1.08
2023-03-17T20:01:04.629Z,1.50
2023-03-17T20:05:56.824Z,1.48
2023-03-17T20:10:53.924Z,1.10
2023-03-17T20:15:45.693Z,0.80
2023-03-17T20:20:37.542Z,0.70
2023-03-17T20:25:29.222Z,0.90
2023-03-17T20:30:21.116Z,0.82
2023-03-17T20:35:12.794Z,0.90
2023-03-17T20:40:08.297Z,0.93
2023-03-17T20:45:00.107Z,1.35
2023-03-17T20:49:53.237Z,1.77
2023-03-17T20:54:45.682Z,1.67
2023-03-17T20:59:37.402Z,1.17
2023-03-17T21:04:29.065Z,0.95
2023-03-17T21:09:20.727Z,0.68
2023-03-17T21:14:13.772Z,0.75
2023-03-17T21:19:08.597Z,0.82
2023-03-17T21:24:02.171Z,0.77
2023-03-17T21:28:54.772Z,1.05
2023-03-17T21:33:50.649Z,0.82
2023-03-17T21:38:42.536Z,0.82
2023-03-17T21:43:34.244Z,1.45
2023-03-17T21:48:26.191Z,1.10
2023-03-17T21:53:17.862Z,0.98
2023-03-17T21:58:09.494Z,0.70
2023-03-17T22:03:01.549Z,1.52
2023-03-17T22:07:53.384Z,2.13
2023-03-17T22:12:45.027Z,1.08
2023-03-17T22:17:37.421Z,1.17
2023-03-17T22:22:30.027Z,1.02
2023-03-17T22:27:21.669Z,0.80
2023-03-17T22:32:13.687Z,1.10
2023-03-17T22:37:05.754Z,0.60
2023-03-17T22:41:57.454Z,0.90
2023-03-17T22:46:49.077Z,0.90
2023-03-17T22:51:43.444Z,0.70
2023-03-17T22:56:35.218Z,1.08
2023-03-17T23:01:27.407Z,1.00
2023-03-17T23:06:19.791Z,1.17
2023-03-17T23:11:24.320Z,1.30
2023-03-17T23:16:17.241Z,1.05
2023-03-17T23:21:09.188Z,1.02
2023-03-17T23:26:01.061Z,0.90
2023-03-17T23:30:53.282Z,0.88
2023-03-17T23:35:46.301Z,1.00
2023-03-17T23:40:38.020Z,1.15
2023-03-17T23:45:29.772Z,1.15
2023-03-17T23:50:21.647Z,1.83
2023-03-17T23:55:13.826Z,1.02
